createdAt,value
2023-03-22T09:24:36.462Z,-1.00
2023-03-22T09:29:17.899Z,-1.00
2023-03-22T09:41:05.473Z,-1.00
2023-03-22T09:42:04.020Z,-1.00
2023-03-22T09:53:08.341Z,-1.00
2023-03-22T09:53:21.312Z,-1.00
2023-03-22T09:55:32.643Z,-1.00
2023-03-22T09:55:46.387Z,-1.00
2023-03-22T10:00:36.476Z,-1.00
2023-03-22T11:07:48.620Z,12.60
2023-03-22T11:08:00.104Z,14.10
2023-03-22T11:08:10.658Z,15.20
2023-03-22T11:08:23.837Z,14.50
2023-03-22T11:08:36.391Z,14.20
2023-03-22T11:08:51.212Z,12.20
2023-03-22T11:09:03.738Z,12.50
2023-03-22T11:09:17.459Z,12.20
2023-03-22T11:09:29.735Z,12.40
2023-03-22T11:09:39.289Z,13.60
2023-03-22T11:09:53.167Z,13.00
2023-03-22T11:10:05.182Z,11.90
2023-03-22T11:10:16.968Z,11.30
2023-03-22T11:10:32.355Z,10.80
2023-03-22T11:10:49.214Z,10.70
2023-03-22T11:11:48.410Z,11.00
2023-03-22T11:12:02.214Z,12.40
2023-03-22T11:12:30.586Z,10.10
2023-03-22T11:12:47.409Z,10.70
2023-03-22T11:12:59.143Z,10.90
2023-03-22T11:13:12.195Z,12.00
2023-03-22T11:13:25.627Z,12.80
2023-03-22T11:13:38.082Z,13.20
2023-03-22T11:13:49.975Z,11.80
2023-03-22T11:14:05.201Z,13.30
2023-03-22T11:14:17.220Z,14.50
2023-03-22T11:14:30.112Z,12.90
2023-03-22T11:14:44.210Z,11.00
2023-03-22T11:14:57.539Z,10.80
2023-03-22T11:15:11.848Z,12.70
2023-03-22T11:15:27.178Z,15.40
2023-03-22T11:15:51.171Z,14.70
2023-03-22T11:17:05.795Z,10.60
2023-03-22T11:17:15.989Z,9.90
2023-03-22T11:17:28.161Z,8.60
2023-03-22T11:18:19.332Z,8.90
2023-03-22T11:18:29.055Z,9.40
2023-03-22T11:18:38.807Z,9.80
2023-03-22T11:18:49.573Z,11.20
2023-03-22T11:20:22.445Z,6.10
2023-03-22T11:20:33.980Z,6.80
2023-03-22T11:20:44.646Z,7.40
2023-03-22T11:20:55.619Z,8.20
2023-03-22T11:21:27.109Z,7.00
2023-03-22T11:21:48.836Z,7.90
2023-03-22T11:21:59.775Z,8.10
2023-03-22T11:22:21.606Z,6.20
2023-03-22T11:22:32.331Z,6.20
2023-03-22T11:22:42.952Z,6.30
2023-03-22T11:22:53.879Z,6.90
2023-03-22T11:23:04.755Z,6.90
2023-03-22T11:23:16.187Z,6.70
2023-03-22T11:23:26.573Z,6.30
2023-03-22T11:23:37.674Z,6.30
2023-03-22T11:23:49.673Z,6.60
2023-03-22T11:24:00.202Z,6.30
2023-03-22T11:27:00.131Z,7.90
2023-03-22T11:27:13.797Z,9.60
2023-03-22T11:27:35.748Z,9.10
2023-03-22T11:27:46.078Z,8.20
2023-03-22T11:28:54.803Z,9.20
2023-03-22T11:29:04.890Z,9.40
2023-03-22T11:29:15.299Z,8.20
2023-03-22T11:29:24.260Z,7.90
2023-03-22T11:29:36.765Z,6.40
2023-03-22T11:29:46.064Z,7.50
2023-03-22T11:30:02.080Z,8.80
2023-03-22T11:30:52.105Z,7.50
2023-03-22T11:31:01.524Z,9.60
2023-03-22T11:31:13.095Z,10.10
2023-03-22T11:31:26.347Z,9.80
2023-03-22T11:31:33.638Z,8.80
2023-03-22T11:32:57.656Z,7.90
2023-03-22T11:33:33.201Z,9.30
2023-03-22T11:33:54.118Z,8.40
2023-03-22T11:35:24.939Z,10.50
2023-03-22T11:35:36.542Z,9.20
2023-03-22T11:35:47.098Z,10.00
2023-03-22T11:35:57.631Z,12.60
2023-03-22T11:36:08.281Z,13.90
2023-03-22T11:36:18.729Z,12.80
2023-03-22T11:36:29.606Z,9.30
2023-03-22T11:36:40.762Z,11.70
2023-03-22T11:36:51.229Z,12.80
2023-03-22T11:37:01.692Z,15.80
2023-03-22T11:37:15.631Z,13.70
2023-03-22T11:37:23.476Z,13.80
2023-03-22T11:37:34.646Z,10.00
2023-03-22T11:37:45.995Z,9.70
2023-03-22T11:37:56.169Z,10.00
2023-03-22T11:38:07.497Z,9.50
2023-03-22T11:38:20.262Z,8.80
2023-03-22T11:38:29.133Z,9.20
2023-03-22T11:38:38.735Z,10.60
2023-03-22T11:38:49.880Z,11.60
2023-03-22T11:39:00.370Z,9.80
2023-03-22T11:39:11.532Z,11.50
2023-03-22T11:39:22.072Z,16.60
2023-03-22T11:39:33.191Z,16.90
2023-03-22T11:39:43.754Z,12.70
2023-03-22T11:39:54.828Z,9.50
2023-03-22T11:40:06.395Z,10.70
2023-03-22T11:40:16.411Z,10.80
2023-03-22T11:40:26.654Z,10.50
2023-03-22T11:40:37.706Z,9.70
2023-03-22T11:40:48.251Z,9.50
2023-03-22T11:41:00.106Z,9.30
2023-03-22T11:41:09.792Z,9.80
2023-03-22T11:41:20.751Z,11.10
2023-03-22T11:41:41.897Z,14.40
2023-03-22T11:41:53.496Z,12.60
2023-03-22T11:42:04.362Z,13.50
2023-03-22T11:42:15.706Z,13.10
2023-03-22T11:42:25.969Z,12.20
2023-03-22T11:42:37.014Z,11.40
2023-03-22T11:42:47.387Z,12.80
2023-03-22T11:42:58.415Z,12.90
2023-03-22T11:43:08.907Z,12.40
2023-03-22T11:43:19.343Z,10.00
2023-03-22T11:43:30.238Z,12.40
2023-03-22T11:43:41.118Z,11.80
2023-03-22T11:43:52.754Z,12.50
2023-03-22T11:44:02.880Z,13.90
2023-03-22T11:44:13.451Z,13.20
2023-03-22T11:44:24.337Z,15.40
